sensor_id;sensor_type;location;lat;lon;timestamp;temperature;humidity
3504;DHT22;1766;53.490;10.174;2023-01-19T00:00:08;8.10;43.10
3504;DHT22;1766;53.490;10.174;2023-01-19T00:02:11;8.10;43.10
3504;DHT22;1766;53.490;10.174;2023-01-19T00:04:13;8.10;43.10
3504;DHT22;1766;53.490;10.174;2023-01-19T00:06:15;8.10;43.10
3504;DHT22;1766;53.490;10.174;2023-01-19T00:08:18;8.10;43.10
3504;DHT22;1766;53.490;10.174;2023-01-19T00:10:20;8.10;43.10
3504;DHT22;1766;53.490;10.174;2023-01-19T00:12:22;8.20;43.10
3504;DHT22;1766;53.490;10.174;2023-01-19T00:14:24;8.10;43.00
3504;DHT22;1766;53.490;10.174;2023-01-19T00:16:26;8.10;43.00
3504;DHT22;1766;53.490;10.174;2023-01-19T00:18:28;8.10;42.90
3504;DHT22;1766;53.490;10.174;2023-01-19T00:20:30;8.10;42.80
3504;DHT22;1766;53.490;10.174;2023-01-19T00:22:34;8.20;43.10
3504;DHT22;1766;53.490;10.174;2023-01-19T00:24:37;8.10;42.90
3504;DHT22;1766;53.490;10.174;2023-01-19T00:26:39;8.20;42.90
3504;DHT22;1766;53.490;10.174;2023-01-19T00:28:42;8.30;43.10
3504;DHT22;1766;53.490;10.174;2023-01-19T00:30:44;8.30;42.90
3504;DHT22;1766;53.490;10.174;2023-01-19T00:32:47;8.30;42.90
3504;DHT22;1766;53.490;10.174;2023-01-19T00:34:49;8.20;42.90
3504;DHT22;1766;53.490;10.174;2023-01-19T00:36:51;8.30;42.90
3504;DHT22;1766;53.490;10.174;2023-01-19T00:38:53;8.30;42.90
3504;DHT22;1766;53.490;10.174;2023-01-19T00:40:56;8.20;42.70
3504;DHT22;1766;53.490;10.174;2023-01-19T00:42:58;8.30;42.80
3504;DHT22;1766;53.490;10.174;2023-01-19T00:44:59;8.30;42.80
3504;DHT22;1766;53.490;10.174;2023-01-19T00:47:01;8.30;42.70
3504;DHT22;1766;53.490;10.174;2023-01-19T00:49:05;8.30;42.70
3504;DHT22;1766;53.490;10.174;2023-01-19T00:51:07;8.30;42.70
3504;DHT22;1766;53.490;10.174;2023-01-19T00:53:09;8.30;42.70
3504;DHT22;1766;53.490;10.174;2023-01-19T00:55:13;8.40;42.80
3504;DHT22;1766;53.490;10.174;2023-01-19T00:57:17;8.40;42.80
3504;DHT22;1766;53.490;10.174;2023-01-19T00:59:19;8.40;42.70
3504;DHT22;1766;53.490;10.174;2023-01-19T01:01:21;8.40;42.70
3504;DHT22;1766;53.490;10.174;2023-01-19T01:03:22;8.40;42.70
3504;DHT22;1766;53.490;10.174;2023-01-19T01:05:27;8.40;42.70
3504;DHT22;1766;53.490;10.174;2023-01-19T01:07:29;8.40;42.70
3504;DHT22;1766;53.490;10.174;2023-01-19T01:09:34;8.40;42.70
3504;DHT22;1766;53.490;10.174;2023-01-19T01:11:36;8.50;42.80
3504;DHT22;1766;53.490;10.174;2023-01-19T01:13:40;8.50;42.80
3504;DHT22;1766;53.490;10.174;2023-01-19T01:15:42;8.50;42.70
3504;DHT22;1766;53.490;10.174;2023-01-19T01:17:44;8.50;42.60
3504;DHT22;1766;53.490;10.174;2023-01-19T01:19:47;8.60;42.70
3504;DHT22;1766;53.490;10.174;2023-01-19T01:21:49;8.60;43.20
3504;DHT22;1766;53.490;10.174;2023-01-19T01:23:51;8.60;42.70
3504;DHT22;1766;53.490;10.174;2023-01-19T01:25:52;8.60;42.70
3504;DHT22;1766;53.490;10.174;2023-01-19T01:27:54;8.60;42.70
3504;DHT22;1766;53.490;10.174;2023-01-19T01:29:57;8.60;42.70
3504;DHT22;1766;53.490;10.174;2023-01-19T01:31:59;8.70;42.70
3504;DHT22;1766;53.490;10.174;2023-01-19T01:34:15;8.70;42.70
3504;DHT22;1766;53.490;10.174;2023-01-19T01:36:17;8.70;42.70
3504;DHT22;1766;53.490;10.174;2023-01-19T01:38:20;8.80;42.70
3504;DHT22;1766;53.490;10.174;2023-01-19T01:40:21;8.80;42.70
3504;DHT22;1766;53.490;10.174;2023-01-19T01:42:26;8.70;42.60
3504;DHT22;1766;53.490;10.174;2023-01-19T01:44:45;8.80;42.70
3504;DHT22;1766;53.490;10.174;2023-01-19T01:46:51;8.80;42.70
3504;DHT22;1766;53.490;10.174;2023-01-19T01:48:59;8.80;42.50
3504;DHT22;1766;53.490;10.174;2023-01-19T01:51:05;8.80;42.50
3504;DHT22;1766;53.490;10.174;2023-01-19T01:53:25;8.90;42.60
3504;DHT22;1766;53.490;10.174;2023-01-19T01:55:28;8.90;42.50
3504;DHT22;1766;53.490;10.174;2023-01-19T01:57:30;8.90;42.50
3504;DHT22;1766;53.490;10.174;2023-01-19T01:59:34;8.90;42.50
3504;DHT22;1766;53.490;10.174;2023-01-19T02:01:38;8.80;42.50
3504;DHT22;1766;53.490;10.174;2023-01-19T02:03:56;8.90;42.40
3504;DHT22;1766;53.490;10.174;2023-01-19T02:06:00;9.00;42.40
3504;DHT22;1766;53.490;10.174;2023-01-19T02:08:09;9.00;42.50
3504;DHT22;1766;53.490;10.174;2023-01-19T02:10:27;9.00;42.50
3504;DHT22;1766;53.490;10.174;2023-01-19T02:12:43;9.00;42.40
3504;DHT22;1766;53.490;10.174;2023-01-19T02:14:59;9.00;42.40
3504;DHT22;1766;53.490;10.174;2023-01-19T02:17:00;9.00;42.30
3504;DHT22;1766;53.490;10.174;2023-01-19T02:19:04;9.00;42.40
3504;DHT22;1766;53.490;10.174;2023-01-19T02:21:10;9.00;42.40
3504;DHT22;1766;53.490;10.174;2023-01-19T02:23:19;9.00;42.40
3504;DHT22;1766;53.490;10.174;2023-01-19T02:25:32;9.00;42.40
3504;DHT22;1766;53.490;10.174;2023-01-19T02:27:34;9.10;42.40
3504;DHT22;1766;53.490;10.174;2023-01-19T02:29:37;9.10;42.40
3504;DHT22;1766;53.490;10.174;2023-01-19T02:31:40;9.10;42.40
3504;DHT22;1766;53.490;10.174;2023-01-19T02:33:42;9.10;42.40
3504;DHT22;1766;53.490;10.174;2023-01-19T02:35:44;9.10;42.40
3504;DHT22;1766;53.490;10.174;2023-01-19T02:37:47;9.10;42.40
3504;DHT22;1766;53.490;10.174;2023-01-19T02:39:52;9.10;42.30
3504;DHT22;1766;53.490;10.174;2023-01-19T02:42:00;9.10;42.40
3504;DHT22;1766;53.490;10.174;2023-01-19T02:44:05;9.10;42.40
3504;DHT22;1766;53.490;10.174;2023-01-19T02:46:07;9.20;42.50
3504;DHT22;1766;53.490;10.174;2023-01-19T02:48:09;9.20;42.40
3504;DHT22;1766;53.490;10.174;2023-01-19T02:50:33;9.30;42.40
3504;DHT22;1766;53.490;10.174;2023-01-19T02:52:37;9.20;42.40
3504;DHT22;1766;53.490;10.174;2023-01-19T02:54:47;9.20;42.30
3504;DHT22;1766;53.490;10.174;2023-01-19T02:57:13;9.10;42.30
3504;DHT22;1766;53.490;10.174;2023-01-19T02:59:33;9.30;42.40
3504;DHT22;1766;53.490;10.174;2023-01-19T03:01:54;9.30;42.00
3504;DHT22;1766;53.490;10.174;2023-01-19T03:04:10;9.20;42.30
3504;DHT22;1766;53.490;10.174;2023-01-19T03:06:24;8.80;42.00
3504;DHT22;1766;53.490;10.174;2023-01-19T03:08:42;9.20;42.40
3504;DHT22;1766;53.490;10.174;2023-01-19T03:10:53;9.20;42.40
3504;DHT22;1766;53.490;10.174;2023-01-19T03:13:02;9.30;42.40
3504;DHT22;1766;53.490;10.174;2023-01-19T03:15:14;9.30;42.40
3504;DHT22;1766;53.490;10.174;2023-01-19T03:17:21;9.20;42.30
3504;DHT22;1766;53.490;10.174;2023-01-19T03:19:26;9.20;42.30
3504;DHT22;1766;53.490;10.174;2023-01-19T03:21:29;9.40;42.50
3504;DHT22;1766;53.490;10.174;2023-01-19T03:23:37;9.30;42.40
3504;DHT22;1766;53.490;10.174;2023-01-19T03:25:43;9.30;42.40
3504;DHT22;1766;53.490;10.174;2023-01-19T03:27:47;9.30;42.40
3504;DHT22;1766;53.490;10.174;2023-01-19T03:29:52;9.30;42.40
3504;DHT22;1766;53.490;10.174;2023-01-19T03:31:57;9.30;42.40
3504;DHT22;1766;53.490;10.174;2023-01-19T03:34:19;9.30;42.40
3504;DHT22;1766;53.490;10.174;2023-01-19T03:36:26;9.30;42.30
3504;DHT22;1766;53.490;10.174;2023-01-19T03:38:32;9.40;42.40
3504;DHT22;1766;53.490;10.174;2023-01-19T03:40:36;9.30;42.30
3504;DHT22;1766;53.490;10.174;2023-01-19T03:42:40;9.40;42.50
3504;DHT22;1766;53.490;10.174;2023-01-19T03:44:44;9.40;42.40
3504;DHT22;1766;53.490;10.174;2023-01-19T03:46:50;9.40;42.40
3504;DHT22;1766;53.490;10.174;2023-01-19T03:48:52;9.30;42.40
3504;DHT22;1766;53.490;10.174;2023-01-19T03:50:54;9.40;42.40
3504;DHT22;1766;53.490;10.174;2023-01-19T03:53:01;9.40;42.30
3504;DHT22;1766;53.490;10.174;2023-01-19T03:55:07;9.40;42.50
3504;DHT22;1766;53.490;10.174;2023-01-19T03:57:09;9.50;42.60
3504;DHT22;1766;53.490;10.174;2023-01-19T03:59:12;9.50;42.50
3504;DHT22;1766;53.490;10.174;2023-01-19T04:01:19;9.50;42.50
3504;DHT22;1766;53.490;10.174;2023-01-19T04:03:22;9.60;42.60
3504;DHT22;1766;53.490;10.174;2023-01-19T04:05:23;9.50;42.50
3504;DHT22;1766;53.490;10.174;2023-01-19T04:07:25;9.50;42.50
3504;DHT22;1766;53.490;10.174;2023-01-19T04:09:27;9.60;42.50
3504;DHT22;1766;53.490;10.174;2023-01-19T04:11:29;9.50;42.50
3504;DHT22;1766;53.490;10.174;2023-01-19T04:13:31;9.60;42.60
3504;DHT22;1766;53.490;10.174;2023-01-19T04:15:33;9.70;42.60
3504;DHT22;1766;53.490;10.174;2023-01-19T04:17:36;9.70;42.70
3504;DHT22;1766;53.490;10.174;2023-01-19T04:19:38;9.70;42.70
3504;DHT22;1766;53.490;10.174;2023-01-19T04:21:40;9.70;42.60
3504;DHT22;1766;53.490;10.174;2023-01-19T04:23:42;9.70;42.50
3504;DHT22;1766;53.490;10.174;2023-01-19T04:25:45;9.70;42.60
3504;DHT22;1766;53.490;10.174;2023-01-19T04:27:50;9.70;42.60
3504;DHT22;1766;53.490;10.174;2023-01-19T04:29:52;9.70;42.70
3504;DHT22;1766;53.490;10.174;2023-01-19T04:31:54;9.70;42.60
3504;DHT22;1766;53.490;10.174;2023-01-19T04:33:57;9.70;42.60
3504;DHT22;1766;53.490;10.174;2023-01-19T04:35:59;9.70;42.60
3504;DHT22;1766;53.490;10.174;2023-01-19T04:38:01;9.70;42.60
3504;DHT22;1766;53.490;10.174;2023-01-19T04:40:03;9.60;42.50
3504;DHT22;1766;53.490;10.174;2023-01-19T04:42:05;9.70;42.70
3504;DHT22;1766;53.490;10.174;2023-01-19T04:44:07;9.70;42.60
3504;DHT22;1766;53.490;10.174;2023-01-19T04:46:09;9.60;42.60
3504;DHT22;1766;53.490;10.174;2023-01-19T04:48:11;9.70;42.60
3504;DHT22;1766;53.490;10.174;2023-01-19T04:50:14;9.70;42.80
3504;DHT22;1766;53.490;10.174;2023-01-19T04:52:17;9.70;42.80
3504;DHT22;1766;53.490;10.174;2023-01-19T04:54:18;9.70;42.70
3504;DHT22;1766;53.490;10.174;2023-01-19T04:56:20;9.70;42.80
3504;DHT22;1766;53.490;10.174;2023-01-19T04:58:22;9.70;42.70
3504;DHT22;1766;53.490;10.174;2023-01-19T05:00:24;9.70;42.80
3504;DHT22;1766;53.490;10.174;2023-01-19T05:02:26;9.60;42.70
3504;DHT22;1766;53.490;10.174;2023-01-19T05:04:28;9.70;42.80
3504;DHT22;1766;53.490;10.174;2023-01-19T05:06:31;9.80;42.90
3504;DHT22;1766;53.490;10.174;2023-01-19T05:08:33;9.60;42.90
3504;DHT22;1766;53.490;10.174;2023-01-19T05:10:35;9.70;43.00
3504;DHT22;1766;53.490;10.174;2023-01-19T05:12:37;9.90;43.20
3504;DHT22;1766;53.490;10.174;2023-01-19T05:14:39;9.80;43.10
3504;DHT22;1766;53.490;10.174;2023-01-19T05:16:40;9.80;43.10
3504;DHT22;1766;53.490;10.174;2023-01-19T05:18:42;9.80;43.10
3504;DHT22;1766;53.490;10.174;2023-01-19T05:20:44;9.80;43.10
3504;DHT22;1766;53.490;10.174;2023-01-19T05:22:51;9.80;43.10
3504;DHT22;1766;53.490;10.174;2023-01-19T05:24:53;9.80;43.10
3504;DHT22;1766;53.490;10.174;2023-01-19T05:26:55;9.90;43.00
3504;DHT22;1766;53.490;10.174;2023-01-19T05:28:56;9.80;42.90
3504;DHT22;1766;53.490;10.174;2023-01-19T05:30:58;9.80;43.00
3504;DHT22;1766;53.490;10.174;2023-01-19T05:33:00;9.80;43.00
3504;DHT22;1766;53.490;10.174;2023-01-19T05:35:02;9.70;43.00
3504;DHT22;1766;53.490;10.174;2023-01-19T05:37:04;9.60;43.00
3504;DHT22;1766;53.490;10.174;2023-01-19T05:39:07;9.80;43.20
3504;DHT22;1766;53.490;10.174;2023-01-19T05:41:09;9.80;43.20
3504;DHT22;1766;53.490;10.174;2023-01-19T05:43:11;9.70;43.00
3504;DHT22;1766;53.490;10.174;2023-01-19T05:45:13;9.70;43.20
3504;DHT22;1766;53.490;10.174;2023-01-19T05:47:14;9.70;43.30
3504;DHT22;1766;53.490;10.174;2023-01-19T05:49:16;9.60;43.30
3504;DHT22;1766;53.490;10.174;2023-01-19T05:51:18;9.60;43.30
3504;DHT22;1766;53.490;10.174;2023-01-19T05:53:20;9.60;43.40
3504;DHT22;1766;53.490;10.174;2023-01-19T05:55:23;9.60;43.50
3504;DHT22;1766;53.490;10.174;2023-01-19T05:57:25;9.60;43.60
3504;DHT22;1766;53.490;10.174;2023-01-19T05:59:27;9.60;43.60
3504;DHT22;1766;53.490;10.174;2023-01-19T06:01:29;9.60;43.60
3504;DHT22;1766;53.490;10.174;2023-01-19T06:03:31;9.50;43.50
3504;DHT22;1766;53.490;10.174;2023-01-19T06:05:33;9.60;43.70
3504;DHT22;1766;53.490;10.174;2023-01-19T06:07:37;9.60;43.60
3504;DHT22;1766;53.490;10.174;2023-01-19T06:09:39;9.60;43.60
3504;DHT22;1766;53.490;10.174;2023-01-19T06:11:42;9.60;43.70
3504;DHT22;1766;53.490;10.174;2023-01-19T06:13:44;9.60;43.80
3504;DHT22;1766;53.490;10.174;2023-01-19T06:15:46;9.60;43.80
3504;DHT22;1766;53.490;10.174;2023-01-19T06:17:48;9.70;43.80
3504;DHT22;1766;53.490;10.174;2023-01-19T06:19:50;9.60;43.70
3504;DHT22;1766;53.490;10.174;2023-01-19T06:21:52;9.60;43.90
3504;DHT22;1766;53.490;10.174;2023-01-19T06:23:53;9.60;43.90
3504;DHT22;1766;53.490;10.174;2023-01-19T06:25:55;9.60;43.90
3504;DHT22;1766;53.490;10.174;2023-01-19T06:27:58;9.60;43.90
3504;DHT22;1766;53.490;10.174;2023-01-19T06:30:00;9.60;43.90
3504;DHT22;1766;53.490;10.174;2023-01-19T06:32:02;9.60;43.90
3504;DHT22;1766;53.490;10.174;2023-01-19T06:34:04;9.50;43.90
3504;DHT22;1766;53.490;10.174;2023-01-19T06:36:06;9.50;43.80
3504;DHT22;1766;53.490;10.174;2023-01-19T06:38:08;9.50;44.00
3504;DHT22;1766;53.490;10.174;2023-01-19T06:40:11;9.50;43.90
3504;DHT22;1766;53.490;10.174;2023-01-19T06:42:13;9.60;44.10
3504;DHT22;1766;53.490;10.174;2023-01-19T06:44:16;9.40;43.90
3504;DHT22;1766;53.490;10.174;2023-01-19T06:46:17;9.40;44.00
3504;DHT22;1766;53.490;10.174;2023-01-19T06:48:20;9.40;44.00
3504;DHT22;1766;53.490;10.174;2023-01-19T06:50:21;9.40;44.10
3504;DHT22;1766;53.490;10.174;2023-01-19T06:52:23;9.40;44.20
3504;DHT22;1766;53.490;10.174;2023-01-19T06:54:25;9.40;44.20
3504;DHT22;1766;53.490;10.174;2023-01-19T06:56:27;9.40;44.30
3504;DHT22;1766;53.490;10.174;2023-01-19T06:58:29;9.40;44.30
3504;DHT22;1766;53.490;10.174;2023-01-19T07:00:35;9.30;44.40
3504;DHT22;1766;53.490;10.174;2023-01-19T07:02:39;9.40;44.30
3504;DHT22;1766;53.490;10.174;2023-01-19T07:04:42;9.40;44.40
3504;DHT22;1766;53.490;10.174;2023-01-19T07:06:44;9.40;44.40
3504;DHT22;1766;53.490;10.174;2023-01-19T07:08:46;9.40;44.40
3504;DHT22;1766;53.490;10.174;2023-01-19T07:10:48;9.40;44.40
3504;DHT22;1766;53.490;10.174;2023-01-19T07:12:50;9.50;44.50
3504;DHT22;1766;53.490;10.174;2023-01-19T07:14:52;9.40;44.40
3504;DHT22;1766;53.490;10.174;2023-01-19T07:16:55;9.40;44.40
3504;DHT22;1766;53.490;10.174;2023-01-19T07:18:57;9.50;44.50
3504;DHT22;1766;53.490;10.174;2023-01-19T07:21:02;9.40;44.50
3504;DHT22;1766;53.490;10.174;2023-01-19T07:23:06;9.50;44.40
3504;DHT22;1766;53.490;10.174;2023-01-19T07:25:08;9.40;44.60
3504;DHT22;1766;53.490;10.174;2023-01-19T07:27:10;9.40;44.70
3504;DHT22;1766;53.490;10.174;2023-01-19T07:29:12;9.40;44.60
3504;DHT22;1766;53.490;10.174;2023-01-19T07:31:14;9.50;44.80
3504;DHT22;1766;53.490;10.174;2023-01-19T07:33:18;9.50;44.90
3504;DHT22;1766;53.490;10.174;2023-01-19T07:35:21;9.50;44.80
3504;DHT22;1766;53.490;10.174;2023-01-19T07:37:23;9.50;44.80
3504;DHT22;1766;53.490;10.174;2023-01-19T07:39:25;9.50;44.80
3504;DHT22;1766;53.490;10.174;2023-01-19T07:41:26;9.50;44.80
3504;DHT22;1766;53.490;10.174;2023-01-19T07:43:28;9.60;45.00
3504;DHT22;1766;53.490;10.174;2023-01-19T07:45:30;9.50;45.00
3504;DHT22;1766;53.490;10.174;2023-01-19T07:47:32;9.50;44.80
3504;DHT22;1766;53.490;10.174;2023-01-19T07:49:35;9.50;44.90
3504;DHT22;1766;53.490;10.174;2023-01-19T07:51:37;9.60;45.00
3504;DHT22;1766;53.490;10.174;2023-01-19T07:53:39;9.60;45.10
3504;DHT22;1766;53.490;10.174;2023-01-19T07:55:41;9.50;44.80
3504;DHT22;1766;53.490;10.174;2023-01-19T07:57:43;9.60;45.00
3504;DHT22;1766;53.490;10.174;2023-01-19T07:59:45;9.60;45.10
3504;DHT22;1766;53.490;10.174;2023-01-19T08:01:46;9.70;45.20
3504;DHT22;1766;53.490;10.174;2023-01-19T08:03:49;9.60;45.20
3504;DHT22;1766;53.490;10.174;2023-01-19T08:05:52;9.50;45.30
3504;DHT22;1766;53.490;10.174;2023-01-19T08:07:56;9.60;45.40
3504;DHT22;1766;53.490;10.174;2023-01-19T08:09:58;9.70;45.50
3504;DHT22;1766;53.490;10.174;2023-01-19T08:12:00;9.60;45.30
3504;DHT22;1766;53.490;10.174;2023-01-19T08:14:02;9.50;45.30
3504;DHT22;1766;53.490;10.174;2023-01-19T08:16:04;9.60;45.50
3504;DHT22;1766;53.490;10.174;2023-01-19T08:18:06;9.60;45.50
3504;DHT22;1766;53.490;10.174;2023-01-19T08:20:11;9.60;45.60
3504;DHT22;1766;53.490;10.174;2023-01-19T08:22:15;9.70;45.60
3504;DHT22;1766;53.490;10.174;2023-01-19T08:24:18;9.70;45.50
3504;DHT22;1766;53.490;10.174;2023-01-19T08:26:27;9.70;45.60
3504;DHT22;1766;53.490;10.174;2023-01-19T08:28:30;9.70;45.70
3504;DHT22;1766;53.490;10.174;2023-01-19T08:30:32;9.60;45.50
3504;DHT22;1766;53.490;10.174;2023-01-19T08:32:34;9.70;45.70
3504;DHT22;1766;53.490;10.174;2023-01-19T08:34:36;9.70;45.50
3504;DHT22;1766;53.490;10.174;2023-01-19T08:36:37;9.70;45.60
3504;DHT22;1766;53.490;10.174;2023-01-19T08:38:40;9.70;45.60
3504;DHT22;1766;53.490;10.174;2023-01-19T08:40:44;9.70;45.70
3504;DHT22;1766;53.490;10.174;2023-01-19T08:42:46;9.70;45.70
3504;DHT22;1766;53.490;10.174;2023-01-19T08:44:48;9.60;45.60
3504;DHT22;1766;53.490;10.174;2023-01-19T08:46:53;9.70;44.80
3504;DHT22;1766;53.490;10.174;2023-01-19T08:48:55;9.70;45.70
3504;DHT22;1766;53.490;10.174;2023-01-19T08:50:57;9.70;45.70
3504;DHT22;1766;53.490;10.174;2023-01-19T08:53:01;9.60;45.30
3504;DHT22;1766;53.490;10.174;2023-01-19T08:55:08;9.70;45.80
3504;DHT22;1766;53.490;10.174;2023-01-19T08:57:11;9.80;45.90
3504;DHT22;1766;53.490;10.174;2023-01-19T08:59:14;9.80;45.80
3504;DHT22;1766;53.490;10.174;2023-01-19T09:01:16;9.80;45.80
3504;DHT22;1766;53.490;10.174;2023-01-19T09:03:20;9.70;45.80
3504;DHT22;1766;53.490;10.174;2023-01-19T09:05:23;9.70;45.30
3504;DHT22;1766;53.490;10.174;2023-01-19T09:07:24;9.70;45.90
3504;DHT22;1766;53.490;10.174;2023-01-19T09:09:28;9.80;45.80
3504;DHT22;1766;53.490;10.174;2023-01-19T09:11:31;9.80;46.00
3504;DHT22;1766;53.490;10.174;2023-01-19T09:13:34;9.80;46.00
3504;DHT22;1766;53.490;10.174;2023-01-19T09:15:37;9.80;46.00
3504;DHT22;1766;53.490;10.174;2023-01-19T09:17:39;9.90;46.30
3504;DHT22;1766;53.490;10.174;2023-01-19T09:19:41;10.00;45.50
3504;DHT22;1766;53.490;10.174;2023-01-19T09:21:43;10.10;45.10
3504;DHT22;1766;53.490;10.174;2023-01-19T09:23:45;10.00;45.30
3504;DHT22;1766;53.490;10.174;2023-01-19T09:25:54;10.00;45.30
3504;DHT22;1766;53.490;10.174;2023-01-19T09:27:59;10.10;45.50
3504;DHT22;1766;53.490;10.174;2023-01-19T09:30:02;10.10;45.40
3504;DHT22;1766;53.490;10.174;2023-01-19T09:32:04;10.20;45.50
3504;DHT22;1766;53.490;10.174;2023-01-19T09:34:06;10.10;45.20
3504;DHT22;1766;53.490;10.174;2023-01-19T09:36:08;10.10;45.30
3504;DHT22;1766;53.490;10.174;2023-01-19T09:38:10;10.20;45.30
3504;DHT22;1766;53.490;10.174;2023-01-19T09:40:15;10.10;45.30
3504;DHT22;1766;53.490;10.174;2023-01-19T09:42:26;10.10;45.40
3504;DHT22;1766;53.490;10.174;2023-01-19T09:44:34;10.10;45.40
3504;DHT22;1766;53.490;10.174;2023-01-19T09:46:37;10.10;45.30
3504;DHT22;1766;53.490;10.174;2023-01-19T09:48:44;10.20;45.90
3504;DHT22;1766;53.490;10.174;2023-01-19T09:50:47;10.10;45.40
3504;DHT22;1766;53.490;10.174;2023-01-19T09:52:56;10.10;45.30
3504;DHT22;1766;53.490;10.174;2023-01-19T09:55:00;10.10;45.40
3504;DHT22;1766;53.490;10.174;2023-01-19T09:57:04;10.00;45.40
3504;DHT22;1766;53.490;10.174;2023-01-19T09:59:18;10.00;45.20
3504;DHT22;1766;53.490;10.174;2023-01-19T10:01:41;10.10;45.40
3504;DHT22;1766;53.490;10.174;2023-01-19T10:04:05;10.10;45.40
3504;DHT22;1766;53.490;10.174;2023-01-19T10:06:25;10.20;45.50
3504;DHT22;1766;53.490;10.174;2023-01-19T10:08:34;10.30;45.40
3504;DHT22;1766;53.490;10.174;2023-01-19T10:10:40;10.20;45.40
3504;DHT22;1766;53.490;10.174;2023-01-19T10:12:53;10.30;45.40
3504;DHT22;1766;53.490;10.174;2023-01-19T10:15:04;10.20;45.30
3504;DHT22;1766;53.490;10.174;2023-01-19T10:17:23;10.30;45.10
3504;DHT22;1766;53.490;10.174;2023-01-19T10:19:34;10.20;45.50
3504;DHT22;1766;53.490;10.174;2023-01-19T10:21:40;10.30;45.50
3504;DHT22;1766;53.490;10.174;2023-01-19T10:23:46;10.50;45.60
3504;DHT22;1766;53.490;10.174;2023-01-19T10:25:50;10.40;45.40
3504;DHT22;1766;53.490;10.174;2023-01-19T10:27:52;10.40;45.30
3504;DHT22;1766;53.490;10.174;2023-01-19T10:29:55;10.30;45.20
3504;DHT22;1766;53.490;10.174;2023-01-19T10:32:03;10.40;45.40
3504;DHT22;1766;53.490;10.174;2023-01-19T10:34:11;10.40;45.40
3504;DHT22;1766;53.490;10.174;2023-01-19T10:36:19;10.40;45.40
3504;DHT22;1766;53.490;10.174;2023-01-19T10:38:29;10.50;45.40
3504;DHT22;1766;53.490;10.174;2023-01-19T10:40:36;10.50;45.40
3504;DHT22;1766;53.490;10.174;2023-01-19T10:42:42;10.50;45.40
3504;DHT22;1766;53.490;10.174;2023-01-19T10:44:44;10.50;45.40
3504;DHT22;1766;53.490;10.174;2023-01-19T10:46:48;10.60;45.60
3504;DHT22;1766;53.490;10.174;2023-01-19T10:48:51;10.70;45.60
3504;DHT22;1766;53.490;10.174;2023-01-19T10:51:02;10.80;45.60
3504;DHT22;1766;53.490;10.174;2023-01-19T10:53:16;10.70;45.40
3504;DHT22;1766;53.490;10.174;2023-01-19T10:55:27;10.80;45.10
3504;DHT22;1766;53.490;10.174;2023-01-19T10:57:33;10.70;45.40
3504;DHT22;1766;53.490;10.174;2023-01-19T10:59:46;10.80;45.30
3504;DHT22;1766;53.490;10.174;2023-01-19T11:02:02;10.70;45.00
3504;DHT22;1766;53.490;10.174;2023-01-19T11:04:20;10.70;45.10
3504;DHT22;1766;53.490;10.174;2023-01-19T11:06:29;10.70;45.00
3504;DHT22;1766;53.490;10.174;2023-01-19T11:08:33;10.70;45.00
3504;DHT22;1766;53.490;10.174;2023-01-19T11:10:35;10.70;44.90
3504;DHT22;1766;53.490;10.174;2023-01-19T11:12:39;10.70;45.30
3504;DHT22;1766;53.490;10.174;2023-01-19T11:14:42;10.70;45.20
3504;DHT22;1766;53.490;10.174;2023-01-19T11:16:47;10.80;45.20
3504;DHT22;1766;53.490;10.174;2023-01-19T11:18:51;10.80;45.20
3504;DHT22;1766;53.490;10.174;2023-01-19T11:20:56;10.90;45.00
3504;DHT22;1766;53.490;10.174;2023-01-19T11:23:06;10.80;45.10
3504;DHT22;1766;53.490;10.174;2023-01-19T11:25:23;10.90;45.10
3504;DHT22;1766;53.490;10.174;2023-01-19T11:27:29;10.80;45.10
3504;DHT22;1766;53.490;10.174;2023-01-19T11:29:32;10.90;45.10
3504;DHT22;1766;53.490;10.174;2023-01-19T11:31:34;10.80;44.80
3504;DHT22;1766;53.490;10.174;2023-01-19T11:33:40;10.80;44.90
3504;DHT22;1766;53.490;10.174;2023-01-19T11:35:46;10.70;45.00
3504;DHT22;1766;53.490;10.174;2023-01-19T11:38:06;12.00;46.00
3504;DHT22;1766;53.490;10.174;2023-01-19T11:40:14;10.90;45.10
3504;DHT22;1766;53.490;10.174;2023-01-19T11:42:18;10.90;45.00
3504;DHT22;1766;53.490;10.174;2023-01-19T11:44:22;11.00;45.10
3504;DHT22;1766;53.490;10.174;2023-01-19T11:46:31;10.90;44.90
3504;DHT22;1766;53.490;10.174;2023-01-19T11:48:37;10.80;44.90
3504;DHT22;1766;53.490;10.174;2023-01-19T11:50:43;10.90;45.10
3504;DHT22;1766;53.490;10.174;2023-01-19T11:52:48;10.90;45.10
3504;DHT22;1766;53.490;10.174;2023-01-19T11:55:00;11.00;45.10
3504;DHT22;1766;53.490;10.174;2023-01-19T11:57:10;10.90;45.00
3504;DHT22;1766;53.490;10.174;2023-01-19T11:59:15;11.00;45.00
3504;DHT22;1766;53.490;10.174;2023-01-19T12:01:20;11.10;45.00
3504;DHT22;1766;53.490;10.174;2023-01-19T12:03:27;12.10;46.00
3504;DHT22;1766;53.490;10.174;2023-01-19T12:05:33;11.10;45.20
3504;DHT22;1766;53.490;10.174;2023-01-19T12:07:37;11.20;45.30
3504;DHT22;1766;53.490;10.174;2023-01-19T12:09:41;11.40;45.50
3504;DHT22;1766;53.490;10.174;2023-01-19T12:11:49;11.40;45.00
3504;DHT22;1766;53.490;10.174;2023-01-19T12:13:55;11.40;44.80
3504;DHT22;1766;53.490;10.174;2023-01-19T12:16:00;11.40;44.80
3504;DHT22;1766;53.490;10.174;2023-01-19T12:18:11;11.30;45.00
3504;DHT22;1766;53.490;10.174;2023-01-19T12:20:23;11.30;45.10
3504;DHT22;1766;53.490;10.174;2023-01-19T12:22:28;11.50;45.40
3504;DHT22;1766;53.490;10.174;2023-01-19T12:24:40;11.50;45.40
3504;DHT22;1766;53.490;10.174;2023-01-19T12:26:52;11.70;45.50
3504;DHT22;1766;53.490;10.174;2023-01-19T12:28:58;11.70;45.40
3504;DHT22;1766;53.490;10.174;2023-01-19T12:31:04;11.90;45.30
3504;DHT22;1766;53.490;10.174;2023-01-19T12:33:30;11.90;44.90
3504;DHT22;1766;53.490;10.174;2023-01-19T12:35:54;11.90;45.00
3504;DHT22;1766;53.490;10.174;2023-01-19T12:37:57;11.80;44.80
3504;DHT22;1766;53.490;10.174;2023-01-19T12:40:00;11.90;44.80
3504;DHT22;1766;53.490;10.174;2023-01-19T12:42:12;11.80;44.70
3504;DHT22;1766;53.490;10.174;2023-01-19T12:44:21;11.80;44.60
3504;DHT22;1766;53.490;10.174;2023-01-19T12:46:27;11.70;44.60
3504;DHT22;1766;53.490;10.174;2023-01-19T12:48:31;11.70;44.60
3504;DHT22;1766;53.490;10.174;2023-01-19T12:50:35;11.70;44.70
3504;DHT22;1766;53.490;10.174;2023-01-19T12:52:40;11.70;44.70
3504;DHT22;1766;53.490;10.174;2023-01-19T12:54:54;11.70;44.50
3504;DHT22;1766;53.490;10.174;2023-01-19T12:57:02;11.60;44.40
3504;DHT22;1766;53.490;10.174;2023-01-19T12:59:22;11.70;44.40
3504;DHT22;1766;53.490;10.174;2023-01-19T13:01:25;11.50;44.30
3504;DHT22;1766;53.490;10.174;2023-01-19T13:03:43;11.60;44.40
3504;DHT22;1766;53.490;10.174;2023-01-19T13:05:50;11.50;44.50
3504;DHT22;1766;53.490;10.174;2023-01-19T13:08:12;11.60;44.50
3504;DHT22;1766;53.490;10.174;2023-01-19T13:13:15;11.50;44.40
3504;DHT22;1766;53.490;10.174;2023-01-19T13:15:34;11.50;44.30
3504;DHT22;1766;53.490;10.174;2023-01-19T13:17:45;11.40;44.30
3504;DHT22;1766;53.490;10.174;2023-01-19T13:20:03;11.50;44.40
3504;DHT22;1766;53.490;10.174;2023-01-19T13:25:08;11.50;44.50
3504;DHT22;1766;53.490;10.174;2023-01-19T13:27:12;11.50;44.40
3504;DHT22;1766;53.490;10.174;2023-01-19T13:29:20;11.50;44.50
3504;DHT22;1766;53.490;10.174;2023-01-19T13:31:32;11.50;44.60
3504;DHT22;1766;53.490;10.174;2023-01-19T13:33:42;11.60;44.60
3504;DHT22;1766;53.490;10.174;2023-01-19T13:35:50;11.60;44.60
3504;DHT22;1766;53.490;10.174;2023-01-19T13:37:54;11.50;44.40